createdAt,value
2023-05-14T00:00:06.398Z,82
2023-05-14T00:00:36.852Z,82
2023-05-14T00:01:08.724Z,82
2023-05-14T00:01:36.110Z,82
2023-05-14T00:01:56.213Z,82
2023-05-14T00:02:28.427Z,82
2023-05-14T00:03:00.311Z,82
2023-05-14T00:03:32.623Z,82
2023-05-14T00:04:03.997Z,82
2023-05-14T00:04:39.046Z,82
2023-05-14T00:05:08.970Z,82
2023-05-14T00:05:36.286Z,82
2023-05-14T00:05:56.509Z,83
2023-05-14T00:06:28.359Z,83
2023-05-14T00:07:00.154Z,83
2023-05-14T00:07:32.741Z,83
2023-05-14T00:08:04.007Z,83
2023-05-14T00:08:36.337Z,83
2023-05-14T00:09:08.103Z,83
2023-05-14T00:09:36.313Z,83
2023-05-14T00:09:56.511Z,83
2023-05-14T00:10:28.752Z,83
2023-05-14T00:11:00.212Z,83
2023-05-14T00:11:32.574Z,83
2023-05-14T00:12:04.003Z,83
2023-05-14T00:12:36.157Z,84
2023-05-14T00:13:08.051Z,83
2023-05-14T00:13:36.743Z,83
2023-05-14T00:13:56.123Z,83
2023-05-14T00:14:28.383Z,84
2023-05-14T00:15:01.435Z,84
2023-05-14T00:15:34.224Z,84
2023-05-14T00:16:04.052Z,84
2023-05-14T00:16:36.367Z,84
2023-05-14T00:17:08.205Z,84
2023-05-14T00:17:36.283Z,84
2023-05-14T00:17:56.245Z,84
2023-05-14T00:18:28.227Z,84
2023-05-14T00:19:00.085Z,84
2023-05-14T00:19:32.200Z,84
2023-05-14T00:20:05.464Z,85
2023-05-14T00:20:36.042Z,84
2023-05-14T00:21:08.131Z,84
2023-05-14T00:21:36.719Z,84
2023-05-14T00:21:56.147Z,85
2023-05-14T00:22:28.336Z,84
2023-05-14T00:23:00.318Z,84
2023-05-14T00:23:32.189Z,85
2023-05-14T00:24:03.972Z,84
2023-05-14T00:24:36.120Z,85
2023-05-14T00:25:08.495Z,85
2023-05-14T00:25:36.405Z,85
2023-05-14T00:25:56.564Z,85
2023-05-14T00:26:28.495Z,85
2023-05-14T00:27:00.180Z,85
2023-05-14T00:27:32.495Z,85
2023-05-14T00:28:04.036Z,85
2023-05-14T00:28:36.957Z,85
2023-05-14T00:29:08.076Z,85
2023-05-14T00:29:36.687Z,85
2023-05-14T00:29:57.145Z,85
2023-05-14T00:30:29.117Z,85
2023-05-14T00:31:00.207Z,85
2023-05-14T00:31:32.279Z,85
2023-05-14T00:32:03.961Z,85
2023-05-14T00:32:36.169Z,85
2023-05-14T00:33:08.335Z,85
2023-05-14T00:33:36.197Z,85
2023-05-14T00:33:56.120Z,85
2023-05-14T00:34:28.309Z,85
2023-05-14T00:35:00.771Z,85
2023-05-14T00:35:32.245Z,85
2023-05-14T00:36:03.932Z,85
2023-05-14T00:36:36.932Z,85
2023-05-14T00:37:08.129Z,85
2023-05-14T00:37:36.575Z,85
2023-05-14T00:37:56.637Z,85
2023-05-14T00:38:28.286Z,85
2023-05-14T00:39:00.128Z,85
2023-05-14T00:39:32.308Z,85
2023-05-14T00:40:05.638Z,85
2023-05-14T00:40:36.446Z,85
2023-05-14T00:41:08.058Z,85
2023-05-14T00:41:36.651Z,85
2023-05-14T00:41:56.077Z,85
2023-05-14T00:42:28.409Z,85
2023-05-14T00:43:00.147Z,85
2023-05-14T00:43:32.211Z,85
2023-05-14T00:44:03.989Z,85
2023-05-14T00:44:36.109Z,85
2023-05-14T00:45:09.155Z,85
2023-05-14T00:45:36.468Z,85
2023-05-14T00:45:56.633Z,85
2023-05-14T00:46:28.428Z,85
2023-05-14T00:47:00.318Z,85
2023-05-14T00:47:32.212Z,85
2023-05-14T00:48:04.049Z,85
2023-05-14T00:48:36.091Z,85
2023-05-14T00:49:08.030Z,85
2023-05-14T00:49:36.144Z,85
2023-05-14T00:49:56.033Z,85
2023-05-14T00:50:28.865Z,85
2023-05-14T00:51:00.063Z,85
2023-05-14T00:51:32.350Z,85
2023-05-14T00:52:03.990Z,85
2023-05-14T00:52:36.459Z,85
2023-05-14T00:53:08.007Z,85
2023-05-14T00:53:36.160Z,85
2023-05-14T00:53:56.217Z,85
2023-05-14T00:54:28.933Z,85
2023-05-14T00:55:00.157Z,85
2023-05-14T00:55:32.669Z,85
2023-05-14T00:56:03.983Z,85
2023-05-14T00:56:36.290Z,85
2023-05-14T00:57:08.033Z,85
2023-05-14T00:57:36.118Z,85
2023-05-14T00:57:56.132Z,85
2023-05-14T00:58:28.309Z,85
2023-05-14T00:59:00.146Z,85
2023-05-14T00:59:32.612Z,85
2023-05-14T01:00:06.065Z,85
2023-05-14T01:00:36.325Z,85
2023-05-14T01:01:08.754Z,85
2023-05-14T01:01:56.135Z,85
2023-05-14T01:02:28.388Z,85
2023-05-14T01:03:00.158Z,85
2023-05-14T01:03:33.071Z,85
2023-05-14T01:04:03.995Z,85
2023-05-14T01:04:36.260Z,85
2023-05-14T01:05:08.592Z,85
2023-05-14T01:05:36.180Z,85
2023-05-14T01:05:56.620Z,85
2023-05-14T01:06:28.490Z,85
2023-05-14T01:07:00.154Z,85
2023-05-14T01:07:32.178Z,85
2023-05-14T01:08:03.955Z,85
2023-05-14T01:08:36.512Z,85
2023-05-14T01:09:08.298Z,85
2023-05-14T01:09:36.515Z,85
2023-05-14T01:09:56.066Z,85
2023-05-14T01:10:28.848Z,85
2023-05-14T01:11:00.140Z,85
2023-05-14T01:11:32.276Z,85
2023-05-14T01:12:03.935Z,85
2023-05-14T01:12:36.142Z,85
2023-05-14T01:13:08.078Z,85
2023-05-14T01:13:36.135Z,85
2023-05-14T01:13:56.027Z,85
2023-05-14T01:14:28.314Z,85
2023-05-14T01:15:00.167Z,85
2023-05-14T01:15:33.271Z,86
2023-05-14T01:16:03.937Z,86
2023-05-14T01:16:36.986Z,85
2023-05-14T01:17:07.983Z,85
2023-05-14T01:17:36.159Z,85
2023-05-14T01:17:56.319Z,85
2023-05-14T01:18:28.371Z,85
2023-05-14T01:19:00.216Z,85
2023-05-14T01:19:32.613Z,85
2023-05-14T01:20:05.567Z,85
2023-05-14T01:20:36.273Z,85
2023-05-14T01:21:08.065Z,85
2023-05-14T01:21:36.260Z,85
2023-05-14T01:21:56.216Z,85
2023-05-14T01:22:28.363Z,85
2023-05-14T01:23:00.229Z,85
2023-05-14T01:23:32.209Z,85
2023-05-14T01:24:03.884Z,85
2023-05-14T01:24:36.554Z,85
2023-05-14T01:25:08.534Z,85
2023-05-14T01:25:36.143Z,85
2023-05-14T01:25:56.561Z,85
2023-05-14T01:26:28.561Z,85
2023-05-14T01:27:00.187Z,85
2023-05-14T01:27:32.434Z,85
2023-05-14T01:28:04.048Z,85
2023-05-14T01:28:36.464Z,85
2023-05-14T01:29:08.073Z,85
2023-05-14T01:29:36.220Z,85
2023-05-14T01:29:56.448Z,85
2023-05-14T01:30:30.959Z,85
2023-05-14T01:31:00.225Z,85
2023-05-14T01:31:32.297Z,85
2023-05-14T01:32:04.070Z,85
2023-05-14T01:32:36.274Z,84
2023-05-14T01:33:08.183Z,84
2023-05-14T01:33:36.147Z,84
2023-05-14T01:33:56.353Z,84
2023-05-14T01:34:28.364Z,84
2023-05-14T01:35:00.172Z,84
2023-05-14T01:35:32.794Z,84
2023-05-14T01:36:03.989Z,84
2023-05-14T01:36:36.228Z,84
2023-05-14T01:37:09.590Z,84
2023-05-14T01:37:36.216Z,84
2023-05-14T01:37:56.223Z,84
2023-05-14T01:38:28.391Z,84
2023-05-14T01:39:00.548Z,84
2023-05-14T01:39:32.526Z,84
2023-05-14T01:40:05.341Z,84
2023-05-14T01:40:36.307Z,84
2023-05-14T01:41:08.047Z,84
2023-05-14T01:41:36.224Z,85
2023-05-14T01:41:56.394Z,84
2023-05-14T01:42:28.400Z,84
2023-05-14T01:43:00.367Z,85
2023-05-14T01:43:32.365Z,85
2023-05-14T01:44:03.965Z,85
2023-05-14T01:44:36.272Z,85
2023-05-14T01:45:09.023Z,85
2023-05-14T01:45:36.323Z,85
2023-05-14T01:45:56.807Z,85
2023-05-14T01:46:28.357Z,85
2023-05-14T01:47:00.231Z,85
2023-05-14T01:47:32.286Z,85
2023-05-14T01:48:03.956Z,85
2023-05-14T01:48:36.336Z,85
2023-05-14T01:49:08.031Z,85
2023-05-14T01:49:36.193Z,85
2023-05-14T01:49:56.201Z,85
2023-05-14T01:50:28.821Z,85
2023-05-14T01:51:00.240Z,85
2023-05-14T01:51:32.273Z,85
2023-05-14T01:52:04.009Z,85
2023-05-14T01:52:36.238Z,85
2023-05-14T01:53:08.023Z,85
2023-05-14T01:53:36.656Z,85
2023-05-14T01:53:56.785Z,85
2023-05-14T01:54:28.127Z,85
2023-05-14T01:55:00.170Z,85
2023-05-14T01:55:32.651Z,85
2023-05-14T01:56:03.900Z,85
2023-05-14T01:56:36.889Z,85
2023-05-14T01:57:08.058Z,85
2023-05-14T01:57:36.706Z,85
2023-05-14T01:57:56.253Z,85
2023-05-14T01:58:28.156Z,85
2023-05-14T01:59:00.247Z,85
2023-05-14T01:59:32.252Z,85
2023-05-14T02:00:06.156Z,85
2023-05-14T02:00:36.233Z,85
2023-05-14T02:01:08.817Z,85
2023-05-14T02:01:36.395Z,85
2023-05-14T02:01:56.279Z,85
2023-05-14T02:02:28.410Z,85
2023-05-14T02:03:00.570Z,85
2023-05-14T02:03:32.242Z,85
2023-05-14T02:04:04.064Z,85
2023-05-14T02:04:36.603Z,85
2023-05-14T02:05:08.485Z,85
2023-05-14T02:05:36.169Z,85
2023-05-14T02:05:56.658Z,85
2023-05-14T02:06:28.396Z,85
2023-05-14T02:07:00.235Z,85
2023-05-14T02:07:32.298Z,85
2023-05-14T02:08:03.932Z,85
2023-05-14T02:08:36.216Z,85
2023-05-14T02:09:08.053Z,85
2023-05-14T02:09:36.339Z,85
2023-05-14T02:09:56.132Z,85
2023-05-14T02:10:28.726Z,85
2023-05-14T02:11:00.243Z,85
2023-05-14T02:11:32.547Z,85
2023-05-14T02:12:04.317Z,85
2023-05-14T02:12:36.169Z,85
2023-05-14T02:13:08.066Z,85
2023-05-14T02:13:36.231Z,85
2023-05-14T02:13:56.225Z,85
2023-05-14T02:14:28.430Z,85
2023-05-14T02:15:01.344Z,85
2023-05-14T02:15:32.409Z,85
2023-05-14T02:16:03.982Z,85
2023-05-14T02:16:36.196Z,85
2023-05-14T02:17:07.980Z,85
2023-05-14T02:17:36.981Z,86
2023-05-14T02:17:56.177Z,85
2023-05-14T02:18:28.146Z,86
2023-05-14T02:19:00.181Z,86
2023-05-14T02:19:32.357Z,86
2023-05-14T02:20:05.399Z,86
2023-05-14T02:20:36.330Z,86
2023-05-14T02:21:08.416Z,86
2023-05-14T02:21:36.117Z,86
2023-05-14T02:21:57.022Z,86
2023-05-14T02:22:28.441Z,86
2023-05-14T02:23:00.280Z,86
2023-05-14T02:23:41.146Z,86
2023-05-14T02:24:03.967Z,86
2023-05-14T02:24:36.153Z,86
2023-05-14T02:25:08.754Z,86
2023-05-14T02:25:36.891Z,86
2023-05-14T02:25:56.732Z,86
2023-05-14T02:26:28.437Z,86
2023-05-14T02:27:00.250Z,86
2023-05-14T02:27:32.301Z,86
2023-05-14T02:28:04.016Z,86
2023-05-14T02:28:36.302Z,86
2023-05-14T02:29:08.075Z,86
2023-05-14T02:29:36.220Z,86
2023-05-14T02:29:56.174Z,86
2023-05-14T02:30:29.214Z,87
2023-05-14T02:31:00.286Z,87
2023-05-14T02:31:32.471Z,87
2023-05-14T02:32:03.980Z,87
2023-05-14T02:32:36.264Z,87
2023-05-14T02:33:08.194Z,87
2023-05-14T02:33:36.547Z,87
2023-05-14T02:33:56.131Z,87
2023-05-14T02:34:28.203Z,87
2023-05-14T02:35:00.170Z,87
2023-05-14T02:35:32.665Z,87
2023-05-14T02:36:03.951Z,87
2023-05-14T02:36:36.150Z,87
2023-05-14T02:37:08.056Z,87
2023-05-14T02:37:36.172Z,87
2023-05-14T02:37:56.148Z,87
2023-05-14T02:38:28.255Z,87
2023-05-14T02:39:00.138Z,87
2023-05-14T02:39:32.366Z,87
2023-05-14T02:40:05.456Z,87
2023-05-14T02:40:36.162Z,88
2023-05-14T02:41:08.055Z,88
2023-05-14T02:41:36.131Z,88
2023-05-14T02:41:56.173Z,88
2023-05-14T02:42:28.258Z,88
2023-05-14T02:43:00.023Z,88
2023-05-14T02:43:32.153Z,88
2023-05-14T02:44:03.835Z,88
2023-05-14T02:44:36.063Z,88
2023-05-14T02:45:09.006Z,88
2023-05-14T02:45:36.537Z,88
2023-05-14T02:45:56.578Z,88
2023-05-14T02:46:28.318Z,88
2023-05-14T02:47:00.363Z,88
2023-05-14T02:47:32.130Z,88
2023-05-14T02:48:04.022Z,88
2023-05-14T02:48:36.478Z,88
2023-05-14T02:49:07.991Z,88
2023-05-14T02:49:36.238Z,88
2023-05-14T02:49:56.211Z,88
2023-05-14T02:50:28.594Z,88
2023-05-14T02:51:00.167Z,88
2023-05-14T02:51:32.347Z,88
2023-05-14T02:52:03.856Z,88
2023-05-14T02:52:36.581Z,88
2023-05-14T02:53:08.283Z,88
2023-05-14T02:53:36.556Z,88
2023-05-14T02:53:56.398Z,88
2023-05-14T02:54:28.496Z,88
2023-05-14T02:55:00.671Z,88
2023-05-14T02:55:32.261Z,88
2023-05-14T02:56:03.979Z,88
2023-05-14T02:56:36.259Z,88
2023-05-14T02:57:08.270Z,88
2023-05-14T02:57:36.216Z,88
2023-05-14T02:57:56.140Z,88
2023-05-14T02:58:28.675Z,88
2023-05-14T02:59:00.220Z,88
2023-05-14T02:59:32.224Z,88
2023-05-14T03:00:06.041Z,88
2023-05-14T03:00:36.295Z,88
2023-05-14T03:01:08.544Z,88
2023-05-14T03:01:36.266Z,88
2023-05-14T03:01:56.263Z,88
2023-05-14T03:02:28.399Z,88
2023-05-14T03:03:00.213Z,88
2023-05-14T03:03:32.456Z,88
2023-05-14T03:04:03.971Z,88
2023-05-14T03:04:36.152Z,88
2023-05-14T03:05:08.499Z,88
2023-05-14T03:05:36.185Z,88
2023-05-14T03:05:56.598Z,88
2023-05-14T03:06:28.878Z,88
2023-05-14T03:07:00.356Z,89
2023-05-14T03:07:32.272Z,89
2023-05-14T03:08:03.989Z,89
2023-05-14T03:08:36.387Z,89
2023-05-14T03:09:08.334Z,89
2023-05-14T03:09:38.141Z,89
2023-05-14T03:09:56.259Z,89
2023-05-14T03:10:29.315Z,89
2023-05-14T03:11:00.194Z,89
2023-05-14T03:11:32.184Z,89
2023-05-14T03:12:04.037Z,89
2023-05-14T03:12:36.217Z,88
2023-05-14T03:13:08.049Z,88
2023-05-14T03:13:36.252Z,89
2023-05-14T03:13:56.546Z,89
2023-05-14T03:14:28.258Z,89
2023-05-14T03:15:00.162Z,89
2023-05-14T03:15:33.543Z,89
2023-05-14T03:16:04.087Z,88
2023-05-14T03:16:36.650Z,89
2023-05-14T03:17:08.128Z,89
2023-05-14T03:17:36.407Z,88
2023-05-14T03:17:56.355Z,88
2023-05-14T03:18:28.360Z,88
2023-05-14T03:19:00.249Z,88
2023-05-14T03:19:32.832Z,88
2023-05-14T03:20:05.550Z,88
2023-05-14T03:20:36.241Z,88
2023-05-14T03:21:08.431Z,88
2023-05-14T03:21:36.391Z,88
2023-05-14T03:21:56.228Z,88
2023-05-14T03:22:28.349Z,88
2023-05-14T03:23:00.174Z,88
2023-05-14T03:23:32.410Z,88
2023-05-14T03:24:04.270Z,88
2023-05-14T03:24:36.805Z,88
2023-05-14T03:25:08.756Z,88
2023-05-14T03:25:36.782Z,88
2023-05-14T03:25:56.833Z,88
2023-05-14T03:26:28.539Z,88
2023-05-14T03:27:00.602Z,88
2023-05-14T03:27:32.438Z,88
2023-05-14T03:28:04.109Z,88
2023-05-14T03:28:37.361Z,88
2023-05-14T03:29:08.222Z,88
2023-05-14T03:29:36.404Z,88
2023-05-14T03:29:56.593Z,88
2023-05-14T03:30:29.493Z,88
2023-05-14T03:31:00.406Z,88
2023-05-14T03:31:32.347Z,88
2023-05-14T03:32:05.096Z,88
2023-05-14T03:32:36.335Z,88
2023-05-14T03:33:08.349Z,88
2023-05-14T03:33:36.353Z,88
2023-05-14T03:33:56.440Z,88
2023-05-14T03:34:28.480Z,88
2023-05-14T03:35:01.106Z,88
2023-05-14T03:35:32.520Z,88
2023-05-14T03:36:04.276Z,88
2023-05-14T03:36:36.401Z,88
2023-05-14T03:37:08.244Z,88
2023-05-14T03:37:36.502Z,88
2023-05-14T03:37:56.598Z,88
2023-05-14T03:38:28.520Z,88
2023-05-14T03:39:00.414Z,88
2023-05-14T03:39:32.480Z,88
2023-05-14T03:40:05.698Z,88
2023-05-14T03:40:36.991Z,88
2023-05-14T03:41:08.251Z,88
2023-05-14T03:41:36.360Z,88
2023-05-14T03:41:56.565Z,88
2023-05-14T03:42:28.535Z,88
2023-05-14T03:43:00.463Z,88
2023-05-14T03:43:32.395Z,88
2023-05-14T03:44:04.314Z,88
2023-05-14T03:44:36.444Z,88
2023-05-14T03:45:09.655Z,88
2023-05-14T03:45:36.717Z,88
2023-05-14T03:45:57.796Z,88
2023-05-14T03:46:28.721Z,88
2023-05-14T03:47:00.477Z,88
2023-05-14T03:47:32.555Z,88
2023-05-14T03:48:04.195Z,88
2023-05-14T03:48:36.388Z,88
2023-05-14T03:49:08.341Z,88
2023-05-14T03:49:36.658Z,88
2023-05-14T03:49:56.523Z,88
2023-05-14T03:50:28.994Z,88
2023-05-14T03:51:00.460Z,88
2023-05-14T03:51:32.364Z,88
2023-05-14T03:52:04.209Z,88
2023-05-14T03:52:36.387Z,88
2023-05-14T03:53:08.263Z,88
2023-05-14T03:53:36.442Z,88
2023-05-14T03:53:56.497Z,88
2023-05-14T03:54:28.580Z,88
2023-05-14T03:55:01.411Z,88
2023-05-14T03:55:32.812Z,88
2023-05-14T03:56:04.456Z,88
2023-05-14T03:56:36.425Z,88
2023-05-14T03:57:08.310Z,88
2023-05-14T03:57:36.566Z,88
2023-05-14T03:57:56.437Z,88
2023-05-14T03:58:28.496Z,88
2023-05-14T03:59:00.464Z,88
2023-05-14T03:59:32.533Z,88
2023-05-14T04:00:06.412Z,88
2023-05-14T04:00:37.344Z,88
2023-05-14T04:01:08.742Z,88
2023-05-14T04:01:36.430Z,88
2023-05-14T04:01:56.333Z,88
2023-05-14T04:02:28.477Z,88
2023-05-14T04:03:00.641Z,88
2023-05-14T04:03:32.677Z,88
2023-05-14T04:04:04.251Z,88
2023-05-14T04:04:36.594Z,88
2023-05-14T04:05:08.764Z,88
2023-05-14T04:05:36.430Z,88
2023-05-14T04:05:57.255Z,88
2023-05-14T04:06:28.690Z,88
2023-05-14T04:07:00.549Z,88
2023-05-14T04:07:32.495Z,88
2023-05-14T04:08:04.210Z,88
2023-05-14T04:08:36.425Z,88
2023-05-14T04:09:08.178Z,88
2023-05-14T04:09:37.225Z,88
2023-05-14T04:09:56.772Z,88
2023-05-14T04:10:28.817Z,88
2023-05-14T04:11:00.402Z,88
2023-05-14T04:11:32.434Z,88
2023-05-14T04:12:04.155Z,88
2023-05-14T04:12:36.766Z,88
2023-05-14T04:13:08.248Z,88
2023-05-14T04:13:36.406Z,88
2023-05-14T04:13:56.331Z,88
2023-05-14T04:14:28.542Z,88
2023-05-14T04:15:01.711Z,88
2023-05-14T04:15:32.915Z,88
2023-05-14T04:16:04.175Z,88
2023-05-14T04:16:36.857Z,88
2023-05-14T04:17:08.201Z,88
2023-05-14T04:17:36.467Z,88
2023-05-14T04:17:56.798Z,88
2023-05-14T04:18:28.588Z,88
2023-05-14T04:19:00.995Z,88
2023-05-14T04:19:32.402Z,88
2023-05-14T04:20:05.700Z,88
2023-05-14T04:20:36.460Z,88
2023-05-14T04:21:08.274Z,88
2023-05-14T04:21:36.442Z,88
2023-05-14T04:21:56.341Z,88
2023-05-14T04:22:28.408Z,88
2023-05-14T04:23:00.399Z,88
2023-05-14T04:23:32.808Z,88
2023-05-14T04:24:04.671Z,88
2023-05-14T04:24:36.502Z,88
2023-05-14T04:25:08.798Z,88
2023-05-14T04:25:37.388Z,88
2023-05-14T04:25:56.901Z,88
2023-05-14T04:26:28.457Z,88
2023-05-14T04:27:00.503Z,88
2023-05-14T04:27:32.421Z,88
2023-05-14T04:28:04.986Z,88
2023-05-14T04:28:36.443Z,88
2023-05-14T04:29:08.274Z,88
2023-05-14T04:29:36.525Z,88
2023-05-14T04:29:56.643Z,88
2023-05-14T04:30:29.345Z,88
2023-05-14T04:31:00.596Z,88
2023-05-14T04:31:32.901Z,88
2023-05-14T04:32:04.185Z,88
2023-05-14T04:32:37.736Z,88
2023-05-14T04:33:08.747Z,88
2023-05-14T04:33:36.557Z,88
2023-05-14T04:33:56.531Z,88
2023-05-14T04:34:28.388Z,88
2023-05-14T04:35:01.137Z,88
2023-05-14T04:35:32.527Z,87
2023-05-14T04:36:04.103Z,87
2023-05-14T04:36:37.141Z,87
2023-05-14T04:37:08.762Z,87
2023-05-14T04:37:36.872Z,87
2023-05-14T04:37:56.406Z,87
2023-05-14T04:38:28.581Z,87
2023-05-14T04:39:00.385Z,87
2023-05-14T04:39:32.394Z,87
2023-05-14T04:40:05.613Z,87
2023-05-14T04:40:36.484Z,87
2023-05-14T04:41:08.458Z,87
2023-05-14T04:41:36.611Z,87
2023-05-14T04:41:56.588Z,87
2023-05-14T04:42:28.405Z,87
2023-05-14T04:43:00.547Z,87
2023-05-14T04:43:32.600Z,87
2023-05-14T04:44:04.330Z,87
2023-05-14T04:44:36.502Z,86
2023-05-14T04:45:09.231Z,86
2023-05-14T04:45:36.552Z,86
2023-05-14T04:45:57.025Z,86
2023-05-14T04:46:28.564Z,86
2023-05-14T04:47:00.400Z,86
2023-05-14T04:47:32.694Z,86
2023-05-14T04:48:04.211Z,86
2023-05-14T04:48:36.866Z,86
2023-05-14T04:49:08.276Z,86
2023-05-14T04:49:36.544Z,86
2023-05-14T04:49:56.393Z,86
2023-05-14T04:50:28.792Z,86
2023-05-14T04:51:00.499Z,86
2023-05-14T04:51:32.512Z,86
2023-05-14T04:52:04.229Z,86
2023-05-14T04:52:36.546Z,86
2023-05-14T04:53:08.303Z,86
2023-05-14T04:53:36.531Z,86
2023-05-14T04:53:56.828Z,86
2023-05-14T04:54:28.531Z,86
2023-05-14T04:55:01.152Z,86
2023-05-14T04:55:32.670Z,86
2023-05-14T04:56:04.337Z,86
2023-05-14T04:56:36.624Z,86
2023-05-14T04:57:08.483Z,85
2023-05-14T04:57:36.682Z,86
2023-05-14T04:57:57.121Z,86
2023-05-14T04:58:28.328Z,86
2023-05-14T04:59:00.623Z,86
2023-05-14T04:59:32.584Z,85
2023-05-14T05:00:06.123Z,85
2023-05-14T05:00:36.510Z,86
2023-05-14T05:01:09.145Z,86
2023-05-14T05:01:37.001Z,86
2023-05-14T05:01:56.449Z,86
2023-05-14T05:02:28.673Z,86
2023-05-14T05:03:00.706Z,86
2023-05-14T05:03:32.544Z,86
2023-05-14T05:04:04.399Z,86
2023-05-14T05:04:36.454Z,86
2023-05-14T05:05:08.681Z,86
2023-05-14T05:05:36.411Z,86
2023-05-14T05:05:56.994Z,86
2023-05-14T05:06:28.391Z,86
2023-05-14T05:07:00.573Z,86
2023-05-14T05:07:32.500Z,86
2023-05-14T05:08:04.163Z,86
2023-05-14T05:08:36.423Z,86
2023-05-14T05:09:08.459Z,86
2023-05-14T05:09:37.308Z,86
2023-05-14T05:09:56.286Z,86
2023-05-14T05:10:28.923Z,86
2023-05-14T05:11:00.464Z,86
2023-05-14T05:11:32.342Z,86
2023-05-14T05:12:04.144Z,86
2023-05-14T05:12:36.513Z,86
2023-05-14T05:13:08.204Z,86
2023-05-14T05:13:36.671Z,86
2023-05-14T05:13:56.796Z,86
2023-05-14T05:14:28.519Z,86
2023-05-14T05:15:01.638Z,86
2023-05-14T05:15:32.550Z,86
2023-05-14T05:16:04.198Z,86
2023-05-14T05:16:36.508Z,86
2023-05-14T05:17:08.538Z,86
2023-05-14T05:17:36.690Z,86
2023-05-14T05:17:56.928Z,86
2023-05-14T05:18:28.995Z,86
2023-05-14T05:19:00.763Z,86
2023-05-14T05:19:43.259Z,86
2023-05-14T05:20:06.206Z,86
2023-05-14T05:20:36.620Z,86
2023-05-14T05:21:08.434Z,86
2023-05-14T05:21:36.751Z,86
2023-05-14T05:21:56.633Z,86
2023-05-14T05:22:29.029Z,86
2023-05-14T05:23:00.672Z,86
2023-05-14T05:23:32.683Z,85
2023-05-14T05:24:04.578Z,86
2023-05-14T05:24:37.390Z,86
2023-05-14T05:25:08.935Z,86
2023-05-14T05:25:36.801Z,85
2023-05-14T05:25:57.102Z,85
2023-05-14T05:26:28.531Z,85
2023-05-14T05:27:00.639Z,85
2023-05-14T05:27:33.161Z,85
2023-05-14T05:28:04.494Z,85
2023-05-14T05:28:36.830Z,85
2023-05-14T05:29:08.908Z,85
2023-05-14T05:29:36.632Z,85
2023-05-14T05:29:56.693Z,85
2023-05-14T05:30:29.624Z,85
2023-05-14T05:31:00.718Z,85
2023-05-14T05:31:32.961Z,85
2023-05-14T05:32:04.438Z,85
2023-05-14T05:32:36.735Z,85
2023-05-14T05:33:09.410Z,85
2023-05-14T05:33:37.068Z,85
2023-05-14T05:33:56.838Z,85
2023-05-14T05:34:28.583Z,85
2023-05-14T05:35:01.256Z,85
2023-05-14T05:35:32.657Z,85
2023-05-14T05:36:04.360Z,84
2023-05-14T05:36:37.241Z,84
2023-05-14T05:37:08.464Z,85
2023-05-14T05:37:37.127Z,84
2023-05-14T05:37:59.111Z,85
2023-05-14T05:38:28.757Z,84
2023-05-14T05:39:00.766Z,84
2023-05-14T05:39:33.077Z,84
2023-05-14T05:40:05.921Z,84
2023-05-14T05:40:37.018Z,84
2023-05-14T05:41:08.610Z,84
2023-05-14T05:41:36.886Z,84
2023-05-14T05:41:56.688Z,84
2023-05-14T05:42:28.701Z,84
2023-05-14T05:43:00.810Z,84
2023-05-14T05:43:32.779Z,84
2023-05-14T05:44:04.465Z,84
2023-05-14T05:44:37.159Z,84
2023-05-14T05:45:09.539Z,84
2023-05-14T05:45:36.832Z,83
2023-05-14T05:45:57.256Z,84
2023-05-14T05:46:28.857Z,84
2023-05-14T05:47:00.813Z,84
2023-05-14T05:47:32.854Z,83
2023-05-14T05:48:04.423Z,83
2023-05-14T05:48:36.713Z,83
2023-05-14T05:49:08.639Z,83
2023-05-14T05:49:36.726Z,83
2023-05-14T05:49:57.353Z,83
2023-05-14T05:50:29.243Z,82
2023-05-14T05:51:00.729Z,82
2023-05-14T05:51:32.748Z,82
2023-05-14T05:52:04.590Z,82
2023-05-14T05:52:36.718Z,82
2023-05-14T05:53:08.657Z,82
2023-05-14T05:53:37.263Z,82
2023-05-14T05:53:56.768Z,82
2023-05-14T05:54:28.599Z,81
2023-05-14T05:55:17.103Z,81
2023-05-14T05:55:38.215Z,81
2023-05-14T05:56:04.370Z,81
2023-05-14T05:56:36.624Z,81
2023-05-14T05:57:08.434Z,81
2023-05-14T05:57:36.691Z,81
2023-05-14T05:57:56.731Z,80
2023-05-14T05:58:28.623Z,81
2023-05-14T05:59:00.711Z,80
2023-05-14T05:59:32.677Z,80
2023-05-14T06:00:06.659Z,80
2023-05-14T06:00:36.980Z,80
2023-05-14T06:01:09.057Z,80
2023-05-14T06:01:37.225Z,80
2023-05-14T06:01:56.790Z,80
2023-05-14T06:02:29.185Z,80
2023-05-14T06:03:00.702Z,80
2023-05-14T06:03:32.921Z,80
2023-05-14T06:04:04.453Z,80
2023-05-14T06:04:36.919Z,79
2023-05-14T06:05:09.273Z,79
2023-05-14T06:05:36.740Z,80
2023-05-14T06:05:57.237Z,80
2023-05-14T06:06:29.020Z,79
2023-05-14T06:07:00.711Z,79
2023-05-14T06:07:32.602Z,79
2023-05-14T06:08:04.261Z,79
2023-05-14T06:08:37.351Z,78
2023-05-14T06:09:08.597Z,78
2023-05-14T06:09:36.720Z,78
2023-05-14T06:09:56.789Z,78
2023-05-14T06:10:29.052Z,79
2023-05-14T06:11:00.687Z,79
2023-05-14T06:11:32.769Z,79
2023-05-14T06:12:04.488Z,79
2023-05-14T06:12:36.829Z,79
2023-05-14T06:13:08.575Z,78
2023-05-14T06:13:36.781Z,79
2023-05-14T06:13:56.751Z,78
2023-05-14T06:14:28.755Z,78
2023-05-14T06:15:02.313Z,78
2023-05-14T06:15:32.758Z,79
2023-05-14T06:16:04.697Z,79
2023-05-14T06:16:36.748Z,79
2023-05-14T06:17:09.010Z,79
2023-05-14T06:17:36.771Z,78
2023-05-14T06:17:57.256Z,79
2023-05-14T06:18:28.630Z,78
2023-05-14T06:19:00.702Z,78
2023-05-14T06:19:32.765Z,79
2023-05-14T06:20:06.283Z,79
2023-05-14T06:20:36.842Z,78
2023-05-14T06:21:08.925Z,78
2023-05-14T06:21:36.771Z,78
2023-05-14T06:21:57.156Z,78
2023-05-14T06:22:28.570Z,78
2023-05-14T06:23:01.041Z,78
2023-05-14T06:23:32.741Z,78
2023-05-14T06:24:04.356Z,78
2023-05-14T06:24:36.990Z,78
2023-05-14T06:25:08.956Z,78
2023-05-14T06:25:36.898Z,78
2023-05-14T06:25:57.180Z,77
2023-05-14T06:26:28.837Z,78
2023-05-14T06:27:01.092Z,78
2023-05-14T06:27:32.853Z,78
2023-05-14T06:28:04.342Z,78
2023-05-14T06:28:36.915Z,78
2023-05-14T06:29:08.556Z,78
2023-05-14T06:29:36.750Z,78
2023-05-14T06:29:56.820Z,78
2023-05-14T06:30:29.619Z,78
2023-05-14T06:31:00.954Z,78
2023-05-14T06:31:33.104Z,78
2023-05-14T06:32:04.566Z,78
2023-05-14T06:32:37.159Z,78
2023-05-14T06:33:08.412Z,79
2023-05-14T06:33:36.795Z,79
2023-05-14T06:33:58.119Z,78
2023-05-14T06:34:28.584Z,78
2023-05-14T06:35:01.417Z,78
2023-05-14T06:35:32.780Z,78
2023-05-14T06:36:04.942Z,78
2023-05-14T06:36:36.936Z,77
2023-05-14T06:37:08.428Z,77
2023-05-14T06:37:36.792Z,77
2023-05-14T06:37:56.733Z,77
2023-05-14T06:38:28.562Z,76
2023-05-14T06:39:00.743Z,76
2023-05-14T06:39:32.713Z,76
2023-05-14T06:40:06.041Z,75
2023-05-14T06:40:36.602Z,75
2023-05-14T06:41:08.935Z,76
2023-05-14T06:41:36.684Z,75
2023-05-14T06:41:59.405Z,76
2023-05-14T06:42:28.842Z,76
2023-05-14T06:43:00.840Z,76
2023-05-14T06:43:32.862Z,75
2023-05-14T06:44:04.582Z,75
2023-05-14T06:44:36.761Z,75
2023-05-14T06:45:10.453Z,75
2023-05-14T06:45:36.726Z,75
2023-05-14T06:45:57.201Z,75
2023-05-14T06:46:28.853Z,75
2023-05-14T06:47:00.759Z,75
2023-05-14T06:47:32.978Z,74
2023-05-14T06:48:04.526Z,73
2023-05-14T06:48:36.869Z,74
2023-05-14T06:49:24.765Z,74
2023-05-14T06:49:37.721Z,73
2023-05-14T06:49:57.136Z,74
2023-05-14T06:50:29.353Z,73
2023-05-14T06:51:00.826Z,73
2023-05-14T06:51:32.711Z,73
2023-05-14T06:52:04.473Z,73
2023-05-14T06:52:36.937Z,72
2023-05-14T06:53:08.515Z,73
2023-05-14T06:53:36.967Z,73
2023-05-14T06:53:57.405Z,73
2023-05-14T06:54:29.419Z,73
2023-05-14T06:55:01.348Z,73
2023-05-14T06:55:32.881Z,73
2023-05-14T06:56:04.516Z,73
2023-05-14T06:56:36.916Z,71
2023-05-14T06:57:08.366Z,72
2023-05-14T06:57:39.870Z,72
2023-05-14T06:57:56.827Z,72
2023-05-14T06:58:29.038Z,72
2023-05-14T06:59:00.601Z,72
2023-05-14T06:59:32.890Z,71
2023-05-14T07:00:06.851Z,71
2023-05-14T07:00:36.914Z,71
2023-05-14T07:01:09.215Z,71
2023-05-14T07:01:36.819Z,71
2023-05-14T07:01:56.847Z,71
2023-05-14T07:02:29.317Z,71
2023-05-14T07:03:00.631Z,71
2023-05-14T07:03:32.774Z,71
2023-05-14T07:04:04.354Z,72
2023-05-14T07:04:36.817Z,73
2023-05-14T07:05:09.014Z,71
2023-05-14T07:05:36.738Z,71
2023-05-14T07:05:57.148Z,72
2023-05-14T07:06:28.679Z,71
2023-05-14T07:07:00.704Z,71
2023-05-14T07:07:32.815Z,71
2023-05-14T07:08:04.313Z,71